KBAD

Barksdale AFB Airport

Bossier City, Louisiana, USA
TAF KBAD 251800Z 2518/2624 30009KT 9999 SCT150 QNH2998INS BECMG 2600/2601 30012KT 8000 -SHRA BKN030 BKN100 QNH2995INS BECMG 2603/2604 30012G18KT 9999 NSW BKN010 QNH2990INS BECMG 2608/2609 30006KT 8000 BR BKN007 QNH2991INS BECMG 2611/2612 30010G15KT 9999 NSW BKN010 QNH2997INS BECMG 2617/2618 32010G15KT 9999 SCT020 QNH2995INS BECMG 2623/2624 33012KT 9999 BKN030 QNH2990INS TX27/2520Z TN09/2611Z
Issued Valid From Valid To
Apr-25 @ 18:00 UTC
(10 minutes ago)
Apr-25 @ 18:00 UTC
(10 minutes ago)
Apr-27 @ 00:00 UTC
(-1 days ago)
Apr-25 @ 18:00 to Apr-26 @ 00:00
TAF KBAD 251800Z 2518/2624 30009KT 9999 SCT150 QNH2998INS
Wind Visibility Clouds Readings
300° at 9 knots Greater than 6 miles
  • Scattered at 15,000' AGL
Altimeter 29.97" Hg
Pressure 1015 hPa
Becoming Apr-26 @ 00:00 to Apr-26 @ 03:00
BECMG 2600/2601 30012KT 8000 -SHRA BKN030 BKN100 QNH2995INS
Wind Visibility Clouds Conditions Readings
300° at 12 knots 41/97 miles
  • Broken at 3,000' AGL
  • Broken at 10,000' AGL
  • Light Rain
Altimeter 29.94" Hg
Pressure 1014 hPa
Becoming Apr-26 @ 03:00 to Apr-26 @ 08:00
BECMG 2603/2604 30012G18KT 9999 NSW BKN010 QNH2990INS
Wind Visibility Clouds Conditions Readings
300° at 12 knots
 Gusting to 18 knots
Greater than 6 miles
  • Broken at 1,000' AGL
Altimeter 29.91" Hg
Pressure 1013 hPa
Becoming Apr-26 @ 08:00 to Apr-26 @ 11:00
BECMG 2608/2609 30006KT 8000 BR BKN007 QNH2991INS
Wind Visibility Clouds Conditions Readings
300° at 6 knots 41/97 miles
  • Broken at 700' AGL
  • Mist
Altimeter 29.91" Hg
Pressure 1013 hPa
Becoming Apr-26 @ 11:00 to Apr-26 @ 17:00
BECMG 2611/2612 30010G15KT 9999 NSW BKN010 QNH2997INS
Wind Visibility Clouds Conditions Readings
300° at 10 knots
 Gusting to 15 knots
Greater than 6 miles
  • Broken at 1,000' AGL
Altimeter 29.97" Hg
Pressure 1015 hPa
Becoming Apr-26 @ 17:00 to Apr-26 @ 23:00
BECMG 2617/2618 32010G15KT 9999 SCT020 QNH2995INS
Wind Visibility Clouds Conditions Readings
320° at 10 knots
 Gusting to 15 knots
Greater than 6 miles
  • Scattered at 2,000' AGL
Altimeter 29.94" Hg
Pressure 1014 hPa
Becoming Apr-26 @ 23:00 to Apr-27 @ 00:00
BECMG 2623/2624 33012KT 9999 BKN030 QNH2990INS TX27/2520Z TN09/2611Z
Wind Visibility Clouds Conditions Readings
330° at 12 knots Greater than 6 miles
  • Broken at 3,000' AGL
Altimeter 29.91" Hg
Pressure 1013 hPa
TAF KBAD 251800Z 2518/2624 30009KT 9999 SCT150 QNH2998INS BECMG 2600/2601 30012KT 8000 -SHRA BKN030 BKN100 QNH2995INS BECMG 2603/2604 30012G18KT 9999 NSW BKN010 QNH2990INS BECMG 2608/2609 30006KT 8000 BR BKN007 QNH2991INS BECMG 2611/2612 30010G15KT 9999 NSW BKN010 QNH2997INS BECMG 2617/2618 32010G15KT 9999 SCT020 QNH2995INS BECMG 2623/2624 33012KT 9999 BKN030 QNH2990INS TX27/2520Z TN09/2611Z
Issued Apr-25 @ 18:00 UTC
(10 minutes ago)
Valid From Apr-25 @ 18:00 UTC
(10 minutes ago)
Valid To Apr-27 @ 00:00 UTC
(-1 days ago)
Apr-25 @ 18:00 - Apr-26 @ 00:00
Wind Visibility
300° at 9 knots Greater than 6 miles
Clouds
  • Scattered at 15,000' AGL
Becoming Apr-26 @ 00:00 - Apr-26 @ 03:00
Wind Visibility
300° at 12 knots 41/97 miles
Clouds
  • Broken at 3,000' AGL
  • Broken at 10,000' AGL
Conditions
  • Light Rain
Becoming Apr-26 @ 03:00 - Apr-26 @ 08:00
Wind Visibility
300° at 12 knots
 Gusting to 18 knots
Greater than 6 miles
Clouds
  • Broken at 1,000' AGL
Conditions
Becoming Apr-26 @ 08:00 - Apr-26 @ 11:00
Wind Visibility
300° at 6 knots 41/97 miles
Clouds
  • Broken at 700' AGL
Conditions
  • Mist
Becoming Apr-26 @ 11:00 - Apr-26 @ 17:00
Wind Visibility
300° at 10 knots
 Gusting to 15 knots
Greater than 6 miles
Clouds
  • Broken at 1,000' AGL
Conditions
Becoming Apr-26 @ 17:00 - Apr-26 @ 23:00
Wind Visibility
320° at 10 knots
 Gusting to 15 knots
Greater than 6 miles
Clouds
  • Scattered at 2,000' AGL
Conditions
Becoming Apr-26 @ 23:00 - Apr-27 @ 00:00
Wind Visibility
330° at 12 knots Greater than 6 miles
Clouds
  • Broken at 3,000' AGL
Conditions